createdAt,value
2017-08-30T00:00:50.778Z,11.17
2017-08-30T00:03:19.393Z,14.70
2017-08-30T00:05:47.742Z,11.13
2017-08-30T00:08:16.012Z,13.60
2017-08-30T00:10:44.691Z,11.67
2017-08-30T00:13:14.694Z,11.80
2017-08-30T00:15:43.357Z,13.17
2017-08-30T00:18:12.619Z,10.93
2017-08-30T00:20:40.953Z,13.47
2017-08-30T00:23:09.264Z,13.10
2017-08-30T00:25:49.508Z,13.07
2017-08-30T00:28:18.096Z,12.47
2017-08-30T00:30:46.404Z,12.53
2017-08-30T00:33:14.718Z,14.70
2017-08-30T00:35:43.408Z,14.30
2017-08-30T00:38:11.677Z,12.10
2017-08-30T00:40:40.032Z,11.33
2017-08-30T00:43:08.689Z,12.20
2017-08-30T00:45:36.984Z,14.13
2017-08-30T00:48:05.315Z,12.17
2017-08-30T00:50:33.945Z,12.33
2017-08-30T00:53:02.222Z,15.00
2017-08-30T00:55:30.515Z,12.47
2017-08-30T00:57:58.841Z,12.93
2017-08-30T01:00:27.204Z,13.60
2017-08-30T01:02:55.832Z,11.93
2017-08-30T01:05:24.184Z,13.40
2017-08-30T01:07:52.596Z,13.93
2017-08-30T01:10:20.974Z,13.17
2017-08-30T01:12:49.255Z,14.03
2017-08-30T01:15:18.522Z,13.93
2017-08-30T01:17:46.833Z,12.83
2017-08-30T01:20:15.173Z,12.83
2017-08-30T01:22:43.464Z,15.37
2017-08-30T01:25:11.781Z,13.20
2017-08-30T01:27:40.356Z,12.00
2017-08-30T01:30:08.659Z,14.20
2017-08-30T01:32:37.063Z,15.33
2017-08-30T01:35:05.857Z,13.93
2017-08-30T01:37:34.167Z,13.37
2017-08-30T01:40:02.820Z,13.87
2017-08-30T01:42:31.150Z,13.17
2017-08-30T01:44:59.432Z,13.93
2017-08-30T01:47:28.356Z,13.53
2017-08-30T01:49:57.921Z,13.80
2017-08-30T01:52:26.479Z,13.53
2017-08-30T01:54:54.772Z,12.60
2017-08-30T01:57:23.101Z,14.00
2017-08-30T01:59:51.753Z,14.27
2017-08-30T02:02:20.168Z,15.53
2017-08-30T02:04:48.471Z,16.00
2017-08-30T02:07:16.789Z,14.03
2017-08-30T02:09:46.293Z,15.67
2017-08-30T02:12:15.587Z,13.37
2017-08-30T02:14:44.343Z,15.77
2017-08-30T02:17:12.681Z,15.67
2017-08-30T02:19:41.346Z,15.40
2017-08-30T02:22:09.636Z,15.20
2017-08-30T02:24:37.942Z,14.97
2017-08-30T02:27:07.314Z,15.80
2017-08-30T02:29:35.639Z,15.17
2017-08-30T02:32:03.981Z,13.67
2017-08-30T02:34:32.876Z,15.00
2017-08-30T02:37:01.201Z,14.00
2017-08-30T02:39:29.759Z,14.80
2017-08-30T02:41:58.098Z,17.37
2017-08-30T02:44:26.382Z,15.40
2017-08-30T02:46:55.000Z,15.40
2017-08-30T02:49:23.293Z,15.80
2017-08-30T02:51:51.662Z,14.87
2017-08-30T02:54:19.995Z,15.90
2017-08-30T02:56:48.272Z,15.90
2017-08-30T02:59:16.941Z,15.40
2017-08-30T03:01:45.562Z,15.57
2017-08-30T03:04:13.824Z,16.73
2017-08-30T03:06:42.678Z,15.50
2017-08-30T03:09:10.985Z,18.53
2017-08-30T03:11:39.651Z,17.43
2017-08-30T03:14:08.736Z,16.40
2017-08-30T03:16:37.026Z,14.70
2017-08-30T03:19:05.642Z,16.23
2017-08-30T03:21:34.839Z,15.63
2017-08-30T03:24:03.620Z,15.50
2017-08-30T03:26:33.027Z,16.40
2017-08-30T03:29:01.356Z,14.00
2017-08-30T03:31:29.636Z,14.60
2017-08-30T03:33:59.754Z,15.40
2017-08-30T03:36:28.937Z,15.00
2017-08-30T03:38:57.613Z,14.77
2017-08-30T03:41:25.944Z,15.03
2017-08-30T03:43:54.703Z,15.10
2017-08-30T03:46:23.347Z,13.50
2017-08-30T03:48:51.780Z,15.33
2017-08-30T03:51:20.096Z,15.37
2017-08-30T03:53:48.738Z,15.47
2017-08-30T03:56:17.283Z,15.37
2017-08-30T03:58:45.938Z,15.93
2017-08-30T04:01:14.856Z,17.27
2017-08-30T04:03:43.157Z,15.70
2017-08-30T04:06:11.475Z,14.73
2017-08-30T04:08:40.597Z,15.17
2017-08-30T04:11:09.289Z,15.33
2017-08-30T04:13:38.050Z,14.30
2017-08-30T04:16:06.348Z,14.80
2017-08-30T04:18:35.713Z,15.33
2017-08-30T04:21:04.021Z,14.53
2017-08-30T04:23:32.912Z,15.03
2017-08-30T04:26:01.549Z,13.57
2017-08-30T04:28:30.198Z,16.50
2017-08-30T04:30:58.884Z,16.00
2017-08-30T04:33:27.237Z,14.80
2017-08-30T04:35:56.113Z,15.37
2017-08-30T04:38:24.744Z,14.53
2017-08-30T04:40:53.018Z,13.10
2017-08-30T04:43:23.170Z,14.47
2017-08-30T04:45:52.164Z,15.10
2017-08-30T04:48:21.502Z,14.33
2017-08-30T04:50:49.831Z,14.07
2017-08-30T04:53:18.426Z,15.50
2017-08-30T04:55:48.032Z,18.00
2017-08-30T04:58:16.349Z,15.33
2017-08-30T05:00:44.996Z,13.73
2017-08-30T05:03:13.396Z,15.10
2017-08-30T05:05:41.839Z,15.50
2017-08-30T05:08:10.168Z,14.17
2017-08-30T05:10:38.819Z,13.87
2017-08-30T05:13:07.415Z,15.17
2017-08-30T05:15:35.760Z,14.77
2017-08-30T05:18:04.080Z,16.47
2017-08-30T05:20:32.675Z,14.07
2017-08-30T05:23:01.012Z,14.47
2017-08-30T05:25:29.346Z,15.70
2017-08-30T05:27:59.062Z,14.47
2017-08-30T05:30:27.394Z,17.07
2017-08-30T05:32:55.754Z,13.00
2017-08-30T05:35:24.509Z,14.30
2017-08-30T05:37:52.955Z,12.53
2017-08-30T05:40:22.082Z,13.30
2017-08-30T05:42:50.740Z,13.90
2017-08-30T05:45:19.071Z,13.90
2017-08-30T05:47:48.134Z,15.67
2017-08-30T05:50:16.762Z,14.07
2017-08-30T05:52:45.133Z,16.00
2017-08-30T05:55:13.455Z,12.40
2017-08-30T05:57:42.360Z,13.67
2017-08-30T06:00:10.721Z,14.17
2017-08-30T06:02:39.022Z,13.60
2017-08-30T06:05:07.390Z,12.73
2017-08-30T06:07:35.835Z,14.57
2017-08-30T06:10:05.138Z,15.10
2017-08-30T06:12:33.454Z,13.30
2017-08-30T06:15:02.261Z,13.53
2017-08-30T06:17:30.970Z,13.40
2017-08-30T06:20:00.296Z,13.53
2017-08-30T06:22:28.634Z,15.47
2017-08-30T06:25:00.270Z,14.90
2017-08-30T06:27:28.575Z,13.90
2017-08-30T06:29:57.004Z,13.63
2017-08-30T06:32:25.698Z,13.30
2017-08-30T06:34:54.123Z,17.73
2017-08-30T06:37:22.569Z,14.20
2017-08-30T06:39:51.654Z,20.77
2017-08-30T06:42:19.973Z,13.70
2017-08-30T06:44:48.602Z,12.13
2017-08-30T06:47:16.899Z,16.93
2017-08-30T06:49:45.287Z,18.97
2017-08-30T06:52:14.151Z,12.90
2017-08-30T06:54:42.637Z,13.30
2017-08-30T06:57:11.240Z,12.70
2017-08-30T06:59:40.003Z,14.27
2017-08-30T07:02:08.710Z,12.53
2017-08-30T07:04:37.198Z,12.40
2017-08-30T07:07:05.489Z,12.97
2017-08-30T07:09:34.181Z,15.60
2017-08-30T07:12:04.020Z,13.93
2017-08-30T07:14:32.846Z,15.20
2017-08-30T07:17:01.467Z,13.07
2017-08-30T07:19:29.784Z,19.80
2017-08-30T07:21:58.093Z,12.83
2017-08-30T07:24:26.524Z,12.00
2017-08-30T07:26:54.849Z,11.73
2017-08-30T07:29:23.900Z,16.73
2017-08-30T07:31:52.323Z,15.10
2017-08-30T07:34:21.552Z,16.03
2017-08-30T07:36:49.860Z,15.87
2017-08-30T07:39:18.162Z,14.57
2017-08-30T07:41:46.787Z,12.13
2017-08-30T07:44:15.096Z,11.57
2017-08-30T07:46:43.612Z,12.20
2017-08-30T07:49:11.937Z,11.67
2017-08-30T07:51:41.039Z,11.90
2017-08-30T07:54:10.588Z,11.63
2017-08-30T07:56:38.883Z,15.50
2017-08-30T07:59:07.615Z,10.57
2017-08-30T08:01:36.945Z,15.03
2017-08-30T08:04:05.699Z,11.13
2017-08-30T08:06:34.039Z,11.57
2017-08-30T08:09:02.327Z,14.23
2017-08-30T08:11:30.652Z,14.23
2017-08-30T08:13:59.005Z,11.00
2017-08-30T08:16:27.564Z,11.40
2017-08-30T08:18:57.289Z,15.30
2017-08-30T08:21:25.566Z,10.97
2017-08-30T08:23:54.198Z,11.80
2017-08-30T08:26:22.911Z,12.30
2017-08-30T08:28:51.233Z,13.03
2017-08-30T08:31:21.070Z,16.97
2017-08-30T08:33:50.517Z,11.27
2017-08-30T08:36:18.862Z,16.60
2017-08-30T08:38:50.315Z,11.13
2017-08-30T08:41:18.715Z,11.73
2017-08-30T08:43:48.568Z,13.87
2017-08-30T08:46:18.066Z,11.10
2017-08-30T08:48:47.516Z,10.90
2017-08-30T08:51:16.423Z,12.47
2017-08-30T08:53:45.023Z,8.17
2017-08-30T08:56:13.309Z,14.07
2017-08-30T08:58:43.135Z,12.83
2017-08-30T09:01:12.103Z,10.57
2017-08-30T09:03:48.266Z,10.93
2017-08-30T09:06:16.610Z,9.87
2017-08-30T09:08:45.685Z,11.33
2017-08-30T09:11:15.313Z,12.30
2017-08-30T09:13:45.167Z,14.20
2017-08-30T09:16:15.288Z,13.37
2017-08-30T09:18:45.126Z,9.50
2017-08-30T09:21:14.606Z,9.70
2017-08-30T09:23:44.390Z,10.97
2017-08-30T09:26:12.926Z,10.67
2017-08-30T09:28:41.833Z,11.30
2017-08-30T09:31:10.130Z,10.70
2017-08-30T09:33:38.734Z,10.40
2017-08-30T09:36:08.522Z,9.03
2017-08-30T09:38:38.731Z,14.67
2017-08-30T09:41:09.126Z,10.93
2017-08-30T09:43:37.470Z,9.70
2017-08-30T09:46:07.115Z,9.47
2017-08-30T09:48:36.650Z,12.63
2017-08-30T09:51:06.501Z,11.17
2017-08-30T09:53:36.307Z,9.30
2017-08-30T09:56:06.090Z,9.03
2017-08-30T09:58:35.812Z,9.57
2017-08-30T10:01:05.341Z,10.20
2017-08-30T10:03:34.955Z,9.57
2017-08-30T10:06:05.127Z,10.53
2017-08-30T10:08:33.697Z,10.07
2017-08-30T10:11:02.869Z,9.00
2017-08-30T10:13:32.514Z,9.37
2017-08-30T10:16:02.023Z,8.10
2017-08-30T10:18:31.526Z,10.53
2017-08-30T10:21:00.132Z,12.90
2017-08-30T10:23:30.356Z,11.10
2017-08-30T10:25:58.678Z,9.43
2017-08-30T10:28:27.297Z,10.13
2017-08-30T10:30:55.582Z,10.00
2017-08-30T10:33:25.626Z,9.53
2017-08-30T10:35:55.122Z,9.73
2017-08-30T10:38:24.491Z,8.40
2017-08-30T10:40:54.172Z,7.67
2017-08-30T10:43:22.406Z,8.57
2017-08-30T10:45:51.011Z,6.93
2017-08-30T10:48:20.643Z,7.57
2017-08-30T10:50:48.911Z,7.30
2017-08-30T10:53:18.591Z,7.60
2017-08-30T10:55:47.289Z,8.10
2017-08-30T10:58:17.887Z,7.00
2017-08-30T11:00:47.415Z,7.10
2017-08-30T11:03:17.288Z,7.47
2017-08-30T11:05:46.851Z,7.77
2017-08-30T11:08:16.350Z,6.83
2017-08-30T11:10:46.140Z,5.70
2017-08-30T11:13:15.428Z,6.90
2017-08-30T11:15:45.057Z,6.43
2017-08-30T11:18:14.978Z,7.10
2017-08-30T11:20:45.522Z,5.90
2017-08-30T11:23:15.314Z,6.63
2017-08-30T11:25:44.822Z,6.33
2017-08-30T11:28:14.589Z,7.50
2017-08-30T11:30:43.101Z,7.10
2017-08-30T11:33:12.742Z,7.47
2017-08-30T11:35:42.268Z,5.90
2017-08-30T11:38:12.929Z,7.70
2017-08-30T11:40:42.506Z,6.67
2017-08-30T11:43:12.002Z,9.97
2017-08-30T11:45:44.411Z,6.13
2017-08-30T11:48:14.065Z,6.53
2017-08-30T11:50:43.113Z,7.90
2017-08-30T11:53:11.425Z,6.70
2017-08-30T11:55:41.662Z,5.57
2017-08-30T11:58:11.327Z,7.67
2017-08-30T12:00:40.873Z,6.30
2017-08-30T12:03:10.692Z,7.40
2017-08-30T12:05:40.229Z,7.13
2017-08-30T12:08:09.783Z,6.47
2017-08-30T12:10:39.568Z,6.10
2017-08-30T12:13:07.799Z,6.23
2017-08-30T12:15:36.278Z,6.50
2017-08-30T12:18:05.376Z,7.40
2017-08-30T12:20:33.773Z,10.07
2017-08-30T12:23:02.459Z,7.87
2017-08-30T12:25:31.467Z,7.30
2017-08-30T12:27:59.793Z,6.77
2017-08-30T12:30:29.873Z,7.33
2017-08-30T12:32:59.316Z,5.60
2017-08-30T12:35:29.141Z,6.20
2017-08-30T12:38:03.795Z,8.10
2017-08-30T12:40:33.740Z,5.63
2017-08-30T12:43:03.267Z,6.83
2017-08-30T12:45:32.824Z,6.80
2017-08-30T12:48:01.725Z,7.80
2017-08-30T12:50:31.400Z,6.30
2017-08-30T12:52:59.874Z,6.50
2017-08-30T12:55:29.529Z,6.30
2017-08-30T12:57:59.034Z,6.30
2017-08-30T13:00:27.702Z,7.07
2017-08-30T13:02:57.361Z,5.97
2017-08-30T13:05:28.321Z,6.30
2017-08-30T13:07:56.517Z,5.77
2017-08-30T13:10:26.194Z,6.93
2017-08-30T13:12:54.700Z,6.40
2017-08-30T13:15:23.902Z,8.00
2017-08-30T13:17:52.184Z,6.50
2017-08-30T13:20:21.930Z,7.00
2017-08-30T13:22:51.005Z,6.50
2017-08-30T13:25:19.636Z,6.37
2017-08-30T13:27:47.953Z,5.63
2017-08-30T13:30:19.047Z,7.33
2017-08-30T13:32:48.088Z,7.10
2017-08-30T13:35:17.748Z,7.57
2017-08-30T13:37:47.135Z,9.50
2017-08-30T13:40:16.546Z,7.50
2017-08-30T13:42:45.345Z,6.93
2017-08-30T13:45:13.929Z,7.37
2017-08-30T13:47:42.293Z,7.80
2017-08-30T13:50:11.398Z,9.90
2017-08-30T13:52:39.782Z,6.80
2017-08-30T13:55:09.436Z,7.83
2017-08-30T13:57:37.916Z,10.70
2017-08-30T14:00:06.273Z,6.90
2017-08-30T14:02:35.900Z,9.23
2017-08-30T14:05:05.950Z,6.10
2017-08-30T14:07:35.483Z,8.43
2017-08-30T14:10:05.016Z,6.47
2017-08-30T14:12:35.273Z,6.87
2017-08-30T14:15:04.887Z,6.20
2017-08-30T14:17:34.431Z,6.93
2017-08-30T14:20:04.304Z,5.67
2017-08-30T14:22:34.467Z,6.47
2017-08-30T14:25:04.342Z,5.90
2017-08-30T14:27:32.516Z,11.60
2017-08-30T14:30:00.824Z,6.77
2017-08-30T14:32:31.573Z,6.53
2017-08-30T14:34:59.911Z,5.23
2017-08-30T14:37:29.971Z,7.27
2017-08-30T14:39:59.500Z,5.57
2017-08-30T14:42:27.675Z,6.50
2017-08-30T14:44:57.645Z,9.77
2017-08-30T14:47:26.570Z,6.53
2017-08-30T14:49:56.334Z,5.60
2017-08-30T14:52:25.939Z,6.70
2017-08-30T14:54:56.574Z,6.30
2017-08-30T14:57:24.885Z,9.00
2017-08-30T14:59:54.018Z,6.80
2017-08-30T15:02:22.312Z,5.70
2017-08-30T15:04:52.590Z,5.33
2017-08-30T15:07:22.100Z,6.30
2017-08-30T15:09:51.585Z,7.87
2017-08-30T15:12:21.414Z,6.10
2017-08-30T15:14:50.941Z,5.43
2017-08-30T15:17:21.590Z,5.63
2017-08-30T15:19:51.517Z,7.50
2017-08-30T15:22:21.404Z,5.73
2017-08-30T15:24:51.240Z,12.67
2017-08-30T15:27:20.809Z,13.00
2017-08-30T15:29:50.652Z,4.70
2017-08-30T15:32:20.600Z,5.83
2017-08-30T15:34:50.133Z,5.17
2017-08-30T15:37:19.641Z,5.43
2017-08-30T15:39:49.161Z,5.00
2017-08-30T15:42:18.662Z,5.93
2017-08-30T15:44:47.503Z,9.90
2017-08-30T15:47:15.786Z,6.80
2017-08-30T15:49:44.774Z,10.00
2017-08-30T15:52:13.175Z,5.37
2017-08-30T15:54:42.610Z,4.77
2017-08-30T15:57:11.251Z,6.90
2017-08-30T15:59:40.255Z,5.40
2017-08-30T16:02:08.535Z,5.17
2017-08-30T16:04:36.869Z,7.50
2017-08-30T16:07:06.392Z,8.17
2017-08-30T16:09:36.657Z,5.63
2017-08-30T16:12:06.407Z,10.43
2017-08-30T16:14:34.709Z,4.63
2017-08-30T16:17:03.592Z,6.03
2017-08-30T16:19:31.920Z,5.63
2017-08-30T16:22:00.706Z,9.80
2017-08-30T16:24:29.034Z,9.17
2017-08-30T16:26:57.386Z,6.10
2017-08-30T16:29:25.696Z,5.80
2017-08-30T16:31:54.021Z,7.03
2017-08-30T16:34:22.652Z,5.27
2017-08-30T16:36:51.396Z,5.73
2017-08-30T16:46:06.801Z,8.50
2017-08-30T16:48:35.513Z,5.93
2017-08-30T16:51:04.086Z,6.77
2017-08-30T16:53:32.374Z,4.70
2017-08-30T16:56:00.686Z,9.83
2017-08-30T16:58:29.739Z,11.33
2017-08-30T17:00:58.021Z,6.40
2017-08-30T17:03:26.310Z,5.33
2017-08-30T17:05:55.205Z,6.47
2017-08-30T17:08:24.004Z,5.60
2017-08-30T17:10:53.246Z,6.43
2017-08-30T17:13:21.784Z,5.40
2017-08-30T17:15:50.192Z,5.83
2017-08-30T17:18:18.861Z,6.43
2017-08-30T17:20:47.160Z,8.20
2017-08-30T17:23:16.242Z,7.40
2017-08-30T17:25:44.568Z,5.87
2017-08-30T17:28:13.795Z,6.03
2017-08-30T17:30:48.320Z,7.03
2017-08-30T17:33:16.600Z,5.30
2017-08-30T17:35:45.292Z,6.13
2017-08-30T17:38:13.865Z,5.43
2017-08-30T17:40:42.136Z,6.00
2017-08-30T17:43:10.797Z,6.83
2017-08-30T17:45:39.681Z,6.80
2017-08-30T17:48:07.957Z,7.17
2017-08-30T17:50:37.153Z,9.50
2017-08-30T17:53:05.481Z,10.70
2017-08-30T17:55:34.157Z,8.23
2017-08-30T17:58:03.300Z,9.13
2017-08-30T18:00:31.613Z,5.60
2017-08-30T18:03:00.303Z,7.20
2017-08-30T18:05:29.210Z,6.50
2017-08-30T18:07:57.522Z,8.50
2017-08-30T18:10:26.114Z,5.77
2017-08-30T18:12:54.421Z,7.20
2017-08-30T18:15:22.970Z,5.77
2017-08-30T18:17:52.041Z,8.13
2017-08-30T18:20:20.323Z,7.80
2017-08-30T18:22:48.876Z,6.50
2017-08-30T18:25:17.144Z,5.33
2017-08-30T18:27:45.742Z,5.53
2017-08-30T18:30:14.050Z,4.40
2017-08-30T18:32:42.762Z,6.30
2017-08-30T18:35:11.088Z,10.20
2017-08-30T18:37:39.384Z,10.43
2017-08-30T18:40:08.022Z,7.10
2017-08-30T18:42:37.237Z,5.57
2017-08-30T18:45:05.677Z,5.93
2017-08-30T18:47:34.780Z,6.00
2017-08-30T18:50:03.070Z,6.60
2017-08-30T18:52:31.666Z,6.70
2017-08-30T18:54:59.938Z,7.53
2017-08-30T18:57:28.421Z,10.60
2017-08-30T18:59:56.759Z,11.60
2017-08-30T19:02:25.519Z,6.97
2017-08-30T19:04:54.094Z,6.40
2017-08-30T19:07:22.482Z,9.33
2017-08-30T19:09:51.370Z,8.63
2017-08-30T19:12:19.706Z,6.07
2017-08-30T19:14:47.976Z,6.50
2017-08-30T19:17:17.349Z,6.90
2017-08-30T19:19:46.658Z,7.23
2017-08-30T19:22:15.647Z,11.30
2017-08-30T19:24:44.000Z,8.50
2017-08-30T19:27:13.757Z,13.13
2017-08-30T19:29:42.439Z,6.67
2017-08-30T19:32:11.511Z,7.40
2017-08-30T19:34:39.824Z,6.60
2017-08-30T19:37:08.144Z,7.07
2017-08-30T19:39:37.375Z,6.17
2017-08-30T19:42:05.977Z,8.40
2017-08-30T19:44:34.476Z,7.30
2017-08-30T19:47:02.781Z,6.93
2017-08-30T19:49:31.838Z,10.30
2017-08-30T19:52:00.123Z,5.43
2017-08-30T19:54:28.738Z,7.90
2017-08-30T19:56:57.021Z,7.20
2017-08-30T19:59:26.118Z,5.77
2017-08-30T20:01:55.489Z,6.57
2017-08-30T20:04:23.782Z,6.43
2017-08-30T20:06:52.091Z,6.73
2017-08-30T20:09:20.979Z,4.90
2017-08-30T20:11:49.454Z,6.10
2017-08-30T20:14:18.045Z,8.30
2017-08-30T20:16:46.359Z,6.47
2017-08-30T20:19:14.659Z,6.70
2017-08-30T20:21:43.706Z,5.77
2017-08-30T20:24:12.937Z,7.40
2017-08-30T20:26:41.654Z,9.17
2017-08-30T20:29:10.739Z,5.90
2017-08-30T20:31:39.137Z,5.53
2017-08-30T20:34:07.762Z,7.63
2017-08-30T20:36:36.102Z,7.17
2017-08-30T20:39:04.388Z,5.30
2017-08-30T20:41:32.742Z,10.03
2017-08-30T20:44:01.070Z,9.30
2017-08-30T20:46:30.127Z,5.30
2017-08-30T20:48:59.370Z,6.13
2017-08-30T20:51:27.727Z,7.57
2017-08-30T20:53:57.058Z,5.17
2017-08-30T20:56:26.008Z,5.27
2017-08-30T20:58:54.394Z,5.53
2017-08-30T21:01:23.022Z,6.20
2017-08-30T21:03:51.358Z,10.47
2017-08-30T21:06:21.043Z,5.50
2017-08-30T21:08:49.672Z,9.43
2017-08-30T21:11:18.276Z,5.30
2017-08-30T21:13:46.586Z,7.77
2017-08-30T21:16:15.257Z,5.70
2017-08-30T21:18:43.593Z,7.90
2017-08-30T21:21:11.874Z,8.90
2017-08-30T21:23:40.188Z,7.73
2017-08-30T21:26:09.249Z,8.30
2017-08-30T21:28:37.838Z,7.30
2017-08-30T21:31:06.148Z,7.97
2017-08-30T21:33:34.987Z,7.83
2017-08-30T21:36:03.300Z,8.30
2017-08-30T21:38:31.589Z,8.60
2017-08-30T21:41:01.375Z,6.47
2017-08-30T21:43:30.291Z,6.07
2017-08-30T21:45:58.601Z,7.60
2017-08-30T21:48:27.067Z,7.17
2017-08-30T21:50:57.322Z,9.07
2017-08-30T21:53:27.169Z,6.37
2017-08-30T21:55:56.701Z,6.23
2017-08-30T21:58:26.314Z,8.20
2017-08-30T22:00:56.201Z,6.37
2017-08-30T22:03:25.689Z,6.90
2017-08-30T22:05:55.417Z,5.73
2017-08-30T22:08:25.200Z,6.20
2017-08-30T22:10:54.724Z,6.20
2017-08-30T22:13:25.043Z,7.80
2017-08-30T22:15:55.349Z,7.10
2017-08-30T22:18:24.923Z,6.30
2017-08-30T22:20:54.439Z,8.97
2017-08-30T22:23:23.997Z,8.40
2017-08-30T22:25:55.018Z,6.13
2017-08-30T22:28:24.872Z,6.13
2017-08-30T22:30:54.423Z,7.10
2017-08-30T22:33:24.679Z,9.50
2017-08-30T22:35:54.570Z,7.43
2017-08-30T22:38:24.659Z,5.33
2017-08-30T22:40:54.455Z,6.40
2017-08-30T22:43:23.985Z,8.17
2017-08-30T22:45:53.526Z,6.00
2017-08-30T22:48:23.062Z,6.00
2017-08-30T22:50:52.576Z,6.73
2017-08-30T22:53:22.444Z,6.93
2017-08-30T22:55:51.983Z,5.90
2017-08-30T22:58:23.324Z,10.77
2017-08-30T23:00:52.895Z,8.13
2017-08-30T23:03:22.540Z,7.33
2017-08-30T23:05:52.353Z,10.27
2017-08-30T23:08:22.276Z,6.20
2017-08-30T23:10:52.896Z,7.40
2017-08-30T23:13:23.298Z,6.80
2017-08-30T23:15:53.140Z,7.33
2017-08-30T23:18:22.717Z,7.87
2017-08-30T23:20:52.269Z,6.30
2017-08-30T23:23:21.812Z,7.80
2017-08-30T23:25:51.338Z,8.43
2017-08-30T23:28:21.143Z,6.93
2017-08-30T23:30:50.676Z,11.13
2017-08-30T23:33:21.220Z,6.90
2017-08-30T23:35:51.993Z,9.03
2017-08-30T23:38:21.910Z,6.97
2017-08-30T23:40:51.461Z,9.43
2017-08-30T23:43:20.971Z,7.93
2017-08-30T23:45:50.499Z,9.33
2017-08-30T23:48:20.480Z,8.97
2017-08-30T23:50:50.716Z,7.17
2017-08-30T23:53:20.839Z,7.77
2017-08-30T23:55:50.739Z,8.87
2017-08-30T23:58:20.495Z,8.60
